Paranaiguara, Brazil
Current Conditions -  °F | °C
As of 8:00 PM on Wednesday 22 Oct 2014 (Local Time) from SBSR Reporting Station
Clear Clear  
Wind Chill: 88°   Ceiling: Unl
Heat Index: 88°   Visibility: 6mi
Dew Point: 55°   Wind: 7mph
Humidity: 33%   Direction: 180°S
Pressure: 29.97"   Gusts: NA
Location:  18.92°S, 50.65°W
Report Text: SBSR 222200Z 18006KT CAVOK 31/13 Q1015
Loading
Personal Weather Stations






























Interactive Weather Map
Tropical Storm Tracking
New forecast layout! Learn more

10-Day Weather Forecast

Advertisements
Track Severe Weather on mobile